Brotonne Bridge — VRHO2 — position and weather

sailwx.info

Track history (hours):
 
Tides and Currents Weather Stations Pressure Air Temp Water Temp Dewpoint Dewpoint Depression Visibility Wind Speed Wind Dir Waves Ship Positions

Brotonne Bridge

Last reported at 2018-Apr-21 06:00 UTC. Time now 2018-Apr-21 23:17 UTC.
Position N 37°06' W 056°18'.

Length 268 m; draft 9.6 m.

Type: Ship (hazmat cat D). MMSI: 477961600.

Wind from 270 at 14 knots

Barometer 1016.8 mb
Air temperature 19.0 ° C
Visibility: greater than 5.4 NM
Dewpoint 17.4 ° C
Water temperature 21.0 ° C

Date/timePositionNaut miles runAvg speedWind from/ knotsBaromVisibWave heightAir tempDewpointWater temp
2018-Apr-21 06:00N 37°06' W 056°18'19716.4 270 / 141016.8 5.4 19.017.421.0
2018-Apr-20 18:00N 36°24' W 060°18'20316.9 230 / 281015.4 5.4 20.018.419.0
2018-Apr-20 06:00N 35°12' W 064°12'46819.5 230 / 301015.5 5.4 21.016.122.0
2018-Apr-19 06:00N 32°18' W 072°54'32123.5 230 / 291016.3 5.4 21.017.821.0
2018-Apr-18 16:22N 32°00' W 079°12'923.7
2018-Apr-18 16:00N 32°00' W 079°22'1722.9
2018-Apr-18 15:17N 31°60' W 079°42'622.8
2018-Apr-18 15:01N 31°60' W 079°49'1222.6
2018-Apr-18 14:29N 31°60' W 080°03'1122.1
2018-Apr-18 14:00N 31°58' W 080°16'1019.3
2018-Apr-18 13:30N 31°54' W 080°26'5 9.5
2018-Apr-18 13:00N 31°55' W 080°32'5 9.7
2018-Apr-18 12:30N 31°55' W 080°38'4 9.0
2018-Apr-18 12:00N 31°58' W 080°42'612.4
2018-Apr-18 11:30N 32°01' W 080°48'611.3
2018-Apr-18 11:00N 32°02' W 080°55'5 9.2
2018-Apr-18 10:30N 32°05' W 080°59'4 8.4
2018-Apr-18 10:00N 32°05' W 081°04'3 6.5
2018-Apr-18 09:30N 32°07' W 081°07'1 1.8
2018-Apr-18 08:55N 32°07' W 081°08'0 0.0
2018-Apr-18 08:25N 32°07' W 081°08'0 0.0
2018-Apr-18 07:55N 32°07' W 081°08'0 0.0
2018-Apr-18 07:19N 32°07' W 081°08'0 0.0
2018-Apr-18 06:49N 32°07' W 081°08'0 0.0
2018-Apr-18 06:25N 32°07' W 081°08'0 0.0
2018-Apr-18 05:55N 32°07' W 081°08'0 0.0
2018-Apr-18 05:25N 32°07' W 081°08'0 0.0
2018-Apr-18 04:49N 32°07' W 081°08'0 0.0
2018-Apr-18 04:25N 32°07' W 081°08'0 0.0
2018-Apr-18 03:55N 32°07' W 081°08'0 0.0
2018-Apr-18 03:25N 32°07' W 081°08'0 0.0
2018-Apr-18 02:55N 32°07' W 081°08'0 0.0
2018-Apr-18 02:25N 32°07' W 081°08'0 0.0
2018-Apr-18 01:55N 32°07' W 081°08'0 0.0
2018-Apr-18 01:25N 32°07' W 081°08'0 0.0
2018-Apr-18 00:55N 32°07' W 081°08'0 0.0
2018-Apr-18 00:25N 32°07' W 081°08'0 0.0
2018-Apr-17 23:55N 32°07' W 081°08'0 0.0
2018-Apr-17 23:25N 32°07' W 081°08'0 0.0
2018-Apr-17 22:49N 32°07' W 081°08'0 0.0
2018-Apr-17 22:25N 32°07' W 081°08'0 0.0
2018-Apr-17 21:49N 32°07' W 081°08'0 0.0
2018-Apr-17 21:25N 32°07' W 081°08'0 0.0
2018-Apr-17 20:55N 32°07' W 081°08'0 0.0
2018-Apr-17 20:25N 32°07' W 081°08'0 0.0
2018-Apr-17 19:55N 32°07' W 081°08'0 0.0
2018-Apr-17 19:25N 32°07' W 081°08'0 0.0
2018-Apr-17 18:55N 32°07' W 081°08'0 0.0
2018-Apr-17 18:25N 32°07' W 081°08'0 0.0
2018-Apr-17 17:55N 32°07' W 081°08'0 0.0
2018-Apr-17 17:25N 32°07' W 081°08'0 0.0
2018-Apr-17 17:00N 32°07' W 081°08'0 0.9
2018-Apr-17 16:30N 32°08' W 081°08'1 3.0
2018-Apr-17 16:00N 32°07' W 081°07'2 4.2
2018-Apr-17 15:30N 32°05' W 081°06'3 6.5
2018-Apr-17 15:00N 32°05' W 081°02'3 7.1
2018-Apr-17 14:30N 32°04' W 080°58'510.0
2018-Apr-17 14:00N 32°02' W 080°53'713.2
2018-Apr-17 13:30N 31°59' W 080°46'612.0
2018-Apr-17 13:00N 31°57' W 080°39'4 7.5
2018-Apr-17 12:30N 31°57' W 080°35'2 3.7
2018-Apr-17 11:59N 31°58' W 080°33'2 3.8
2018-Apr-17 11:30N 31°58' W 080°30'11 9.2
2018-Apr-17 10:17N 31°58' W 080°17'36816.8
2018-Apr-16 12:26N 36°48' W 075°44'6 9.3
2018-Apr-16 11:50N 36°51' W 075°50'3 9.6
2018-Apr-16 11:30N 36°53' W 075°53'5 9.2
2018-Apr-16 10:59N 36°56' W 075°58'4 8.8
2018-Apr-16 10:30N 36°57' W 076°03'1115.5
2018-Apr-16 09:49N 37°00' W 076°16'414.1
2018-Apr-16 09:30N 36°58' W 076°20'3 6.1
2018-Apr-16 09:00N 36°55' W 076°20'0 0.6
2018-Apr-16 08:27N 36°55' W 076°20'0 0.0
2018-Apr-16 08:00N 36°55' W 076°20'0 0.0
2018-Apr-16 07:30N 36°55' W 076°20'0 0.0
2018-Apr-16 06:57N 36°55' W 076°20'0 0.0
2018-Apr-16 06:30N 36°55' W 076°20'0 0.0
2018-Apr-16 06:00N 36°55' W 076°20'0 0.0
2018-Apr-16 05:30N 36°55' W 076°20'0 0.0
2018-Apr-16 05:00N 36°55' W 076°20'0 0.0
2018-Apr-16 04:30N 36°55' W 076°20'0 0.0
2018-Apr-16 04:00N 36°55' W 076°20'0 0.0
2018-Apr-16 03:30N 36°55' W 076°20'0 0.0
2018-Apr-16 03:00N 36°55' W 076°20'0 0.0
2018-Apr-16 02:30N 36°55' W 076°20'0 0.0
2018-Apr-16 02:00N 36°55' W 076°20'0 0.0
2018-Apr-16 01:30N 36°55' W 076°20'0 0.0
2018-Apr-16 01:00N 36°55' W 076°20'0 0.0
2018-Apr-16 00:30N 36°55' W 076°20'0 0.0
2018-Apr-16 00:00N 36°55' W 076°20'0 0.0
2018-Apr-15 23:30N 36°55' W 076°20'0 0.0
2018-Apr-15 22:57N 36°55' W 076°20'0 0.0
2018-Apr-15 22:30N 36°55' W 076°20'0 0.0
2018-Apr-15 22:00N 36°55' W 076°20'0 0.0
2018-Apr-15 21:27N 36°55' W 076°20'0 0.0
2018-Apr-15 21:00N 36°55' W 076°20'0 0.0
2018-Apr-15 20:30N 36°55' W 076°20'0 0.0
2018-Apr-15 20:00N 36°55' W 076°20'0 0.0
2018-Apr-15 19:30N 36°55' W 076°20'0 0.0
2018-Apr-15 19:00N 36°55' W 076°20'0 0.0
2018-Apr-15 18:30N 36°55' W 076°20'0 0.0
2018-Apr-15 18:00N 36°55' W 076°20'0 0.0
2018-Apr-15 17:30N 36°55' W 076°20'0 0.0
2018-Apr-15 17:00N 36°55' W 076°20'0 0.0
2018-Apr-15 16:30N 36°55' W 076°20'0 0.0
2018-Apr-15 16:00N 36°55' W 076°20'0 0.0
2018-Apr-15 15:30N 36°55' W 076°20'1 1.4
2018-Apr-15 15:01N 36°55' W 076°20'4 6.4
2018-Apr-15 14:27N 36°59' W 076°20'613.9
2018-Apr-15 14:00N 36°60' W 076°12'917.8
2018-Apr-15 13:30N 36°57' W 076°02'510.4
2018-Apr-15 13:00N 36°56' W 075°56'5 9.2
2018-Apr-15 12:30N 36°52' W 075°52'6 8.6
2018-Apr-15 11:47N 36°49' W 075°45'23514.5
2018-Apr-14 19:30N 40°27' W 073°51'5 9.7
2018-Apr-14 19:00N 40°30' W 073°57'815.5
2018-Apr-14 18:30N 40°36' W 074°03'4 8.0
2018-Apr-14 18:01N 40°39' W 074°06'2 4.0
2018-Apr-14 17:30N 40°39' W 074°09'2 3.1
2018-Apr-14 16:59N 40°41' W 074°08'0 0.0
2018-Apr-14 16:30N 40°41' W 074°08'0 0.0
2018-Apr-14 16:00N 40°41' W 074°08'0 0.0
2018-Apr-14 15:30N 40°41' W 074°08'0 0.1
2018-Apr-14 15:00N 40°41' W 074°09'0 0.0
2018-Apr-14 14:30N 40°41' W 074°08'0 0.0
2018-Apr-14 14:00N 40°41' W 074°08'0 0.0
2018-Apr-14 13:30N 40°41' W 074°08'0 0.0
2018-Apr-14 13:00N 40°41' W 074°08'0 0.0
2018-Apr-14 12:30N 40°41' W 074°08'0 0.0
2018-Apr-14 12:00N 40°41' W 074°08'0 0.0
2018-Apr-14 11:30N 40°41' W 074°09'0 0.0
2018-Apr-14 11:00N 40°41' W 074°08'0 0.0
2018-Apr-14 10:30N 40°41' W 074°08'0 0.0
2018-Apr-14 10:00N 40°41' W 074°08'0 0.0
2018-Apr-14 09:30N 40°41' W 074°08'0 0.0
2018-Apr-14 09:00N 40°41' W 074°08'0 0.0
2018-Apr-14 08:30N 40°41' W 074°08'0 0.0
2018-Apr-14 08:00N 40°41' W 074°08'0 0.0
2018-Apr-14 07:30N 40°41' W 074°08'0 0.0
2018-Apr-14 07:00N 40°41' W 074°08'0 0.0
2018-Apr-14 06:30N 40°41' W 074°08'0 0.0
2018-Apr-14 06:00N 40°41' W 074°08'0 0.0
2018-Apr-14 05:30N 40°41' W 074°08'0 0.0
2018-Apr-14 05:00N 40°41' W 074°08'0 0.0
2018-Apr-14 04:30N 40°41' W 074°08'0 0.0
2018-Apr-14 04:00N 40°41' W 074°08'0 0.0
2018-Apr-14 03:30N 40°41' W 074°08'0 0.0
2018-Apr-14 03:00N 40°41' W 074°08'0 0.0
2018-Apr-14 02:30N 40°41' W 074°08'0 0.0
2018-Apr-14 02:00N 40°41' W 074°08'0 0.0
2018-Apr-14 01:30N 40°41' W 074°08'0 0.0
2018-Apr-14 01:00N 40°41' W 074°08'0 0.0
2018-Apr-14 00:30N 40°41' W 074°08'0 0.0
2018-Apr-14 00:00N 40°41' W 074°08'0 0.0
2018-Apr-13 23:27N 40°41' W 074°08'0 0.0
2018-Apr-13 23:00N 40°41' W 074°08'0 0.0
2018-Apr-13 22:27N 40°41' W 074°08'0 0.0
2018-Apr-13 22:00N 40°41' W 074°08'0 0.0
2018-Apr-13 21:30N 40°41' W 074°08'0 0.0
2018-Apr-13 21:00N 40°41' W 074°08'0 0.0
2018-Apr-13 20:30N 40°41' W 074°08'0 0.0
2018-Apr-13 20:00N 40°41' W 074°08'0 0.0
2018-Apr-13 19:30N 40°41' W 074°08'0 0.0
2018-Apr-13 19:00N 40°41' W 074°08'0 0.0
2018-Apr-13 18:27N 40°41' W 074°08'0 0.0
2018-Apr-13 18:00N 40°41' W 074°08'0 0.0
2018-Apr-13 17:30N 40°41' W 074°08'0 0.0
2018-Apr-13 17:00N 40°41' W 074°08'0 0.0
2018-Apr-13 16:30N 40°41' W 074°08'0 0.0
2018-Apr-13 16:00N 40°41' W 074°08'0 0.0
2018-Apr-13 15:30N 40°41' W 074°08'0 0.3
2018-Apr-13 15:00N 40°40' W 074°08'1 2.0
2018-Apr-13 14:31N 40°40' W 074°09'1 2.1
2018-Apr-13 14:00N 40°39' W 074°09'3 5.7
2018-Apr-13 13:30N 40°39' W 074°05'4 8.4
2018-Apr-13 13:01N 40°36' W 074°02'1111.4
2018-Apr-13 12:00N 40°28' W 073°51'4 8.0
2018-Apr-13 11:31N 40°27' W 073°46'4 8.0
2018-Apr-13 11:00N 40°28' W 073°41'5 9.3
2018-Apr-13 10:30N 40°28' W 073°35'510.0
2018-Apr-13 09:58N 40°28' W 073°27'713.7
2018-Apr-13 09:29N 40°29' W 073°19'50118.2
2018-Apr-12 06:00N 39°30' W 062°30'22018.3 050 / 361011.5 5.4 11.0 9.014.0
2018-Apr-11 18:00N 38°42' W 057°54'23019.1 320 / 281011.2 5.4 21.016.119.0
2018-Apr-11 06:00N 38°00' W 053°06'   140 / 181024.2 5.4 18.014.619.0
Track history (hours):
 
Tides and Currents Weather Stations Pressure Air Temp Water Temp Dewpoint Dewpoint Depression Visibility Wind Speed Wind Dir Waves Ship Positions

Brotonne Bridge

Last reported at 2018-Apr-21 06:00 UTC. Time now 2018-Apr-21 23:17 UTC.
Position N 37°06' W 056°18'.

Length 268 m; draft 9.6 m.

Type: Ship (hazmat cat D). MMSI: 477961600.

Wind from 270 at 14 knots

Barometer 1016.8 mb
Air temperature 19.0 ° C
Visibility: greater than 5.4 NM
Dewpoint 17.4 ° C
Water temperature 21.0 ° C

Date/timePositionNaut miles runAvg speedWind from/ knotsBaromVisibWave heightAir tempDewpointWater temp
2018-Apr-21 06:00N 37°06' W 056°18'19716.4 270 / 141016.8 5.4 19.017.421.0
2018-Apr-20 18:00N 36°24' W 060°18'20316.9 230 / 281015.4 5.4 20.018.419.0
2018-Apr-20 06:00N 35°12' W 064°12'46819.5 230 / 301015.5 5.4 21.016.122.0
2018-Apr-19 06:00N 32°18' W 072°54'32123.5 230 / 291016.3 5.4 21.017.821.0
2018-Apr-18 16:22N 32°00' W 079°12'923.7
2018-Apr-18 16:00N 32°00' W 079°22'1722.9
2018-Apr-18 15:17N 31°60' W 079°42'622.8
2018-Apr-18 15:01N 31°60' W 079°49'1222.6
2018-Apr-18 14:29N 31°60' W 080°03'1122.1
2018-Apr-18 14:00N 31°58' W 080°16'1019.3
2018-Apr-18 13:30N 31°54' W 080°26'5 9.5
2018-Apr-18 13:00N 31°55' W 080°32'5 9.7
2018-Apr-18 12:30N 31°55' W 080°38'4 9.0
2018-Apr-18 12:00N 31°58' W 080°42'612.4
2018-Apr-18 11:30N 32°01' W 080°48'611.3
2018-Apr-18 11:00N 32°02' W 080°55'5 9.2
2018-Apr-18 10:30N 32°05' W 080°59'4 8.4
2018-Apr-18 10:00N 32°05' W 081°04'3 6.5
2018-Apr-18 09:30N 32°07' W 081°07'1 1.8
2018-Apr-18 08:55N 32°07' W 081°08'0 0.0
2018-Apr-18 08:25N 32°07' W 081°08'0 0.0
2018-Apr-18 07:55N 32°07' W 081°08'0 0.0
2018-Apr-18 07:19N 32°07' W 081°08'0 0.0
2018-Apr-18 06:49N 32°07' W 081°08'0 0.0
2018-Apr-18 06:25N 32°07' W 081°08'0 0.0
2018-Apr-18 05:55N 32°07' W 081°08'0 0.0
2018-Apr-18 05:25N 32°07' W 081°08'0 0.0
2018-Apr-18 04:49N 32°07' W 081°08'0 0.0
2018-Apr-18 04:25N 32°07' W 081°08'0 0.0
2018-Apr-18 03:55N 32°07' W 081°08'0 0.0
2018-Apr-18 03:25N 32°07' W 081°08'0 0.0
2018-Apr-18 02:55N 32°07' W 081°08'0 0.0
2018-Apr-18 02:25N 32°07' W 081°08'0 0.0
2018-Apr-18 01:55N 32°07' W 081°08'0 0.0
2018-Apr-18 01:25N 32°07' W 081°08'0 0.0
2018-Apr-18 00:55N 32°07' W 081°08'0 0.0
2018-Apr-18 00:25N 32°07' W 081°08'0 0.0
2018-Apr-17 23:55N 32°07' W 081°08'0 0.0
2018-Apr-17 23:25N 32°07' W 081°08'0 0.0
2018-Apr-17 22:49N 32°07' W 081°08'0 0.0
2018-Apr-17 22:25N 32°07' W 081°08'0 0.0
2018-Apr-17 21:49N 32°07' W 081°08'0 0.0
2018-Apr-17 21:25N 32°07' W 081°08'0 0.0
2018-Apr-17 20:55N 32°07' W 081°08'0 0.0
2018-Apr-17 20:25N 32°07' W 081°08'0 0.0
2018-Apr-17 19:55N 32°07' W 081°08'0 0.0
2018-Apr-17 19:25N 32°07' W 081°08'0 0.0
2018-Apr-17 18:55N 32°07' W 081°08'0 0.0
2018-Apr-17 18:25N 32°07' W 081°08'0 0.0
2018-Apr-17 17:55N 32°07' W 081°08'0 0.0
2018-Apr-17 17:25N 32°07' W 081°08'0 0.0
2018-Apr-17 17:00N 32°07' W 081°08'0 0.9
2018-Apr-17 16:30N 32°08' W 081°08'1 3.0
2018-Apr-17 16:00N 32°07' W 081°07'2 4.2
2018-Apr-17 15:30N 32°05' W 081°06'3 6.5
2018-Apr-17 15:00N 32°05' W 081°02'3 7.1
2018-Apr-17 14:30N 32°04' W 080°58'510.0
2018-Apr-17 14:00N 32°02' W 080°53'713.2
2018-Apr-17 13:30N 31°59' W 080°46'612.0
2018-Apr-17 13:00N 31°57' W 080°39'4 7.5
2018-Apr-17 12:30N 31°57' W 080°35'2 3.7
2018-Apr-17 11:59N 31°58' W 080°33'2 3.8
2018-Apr-17 11:30N 31°58' W 080°30'11 9.2
2018-Apr-17 10:17N 31°58' W 080°17'36816.8
2018-Apr-16 12:26N 36°48' W 075°44'6 9.3
2018-Apr-16 11:50N 36°51' W 075°50'3 9.6
2018-Apr-16 11:30N 36°53' W 075°53'5 9.2
2018-Apr-16 10:59N 36°56' W 075°58'4 8.8
2018-Apr-16 10:30N 36°57' W 076°03'1115.5
2018-Apr-16 09:49N 37°00' W 076°16'414.1
2018-Apr-16 09:30N 36°58' W 076°20'3 6.1
2018-Apr-16 09:00N 36°55' W 076°20'0 0.6
2018-Apr-16 08:27N 36°55' W 076°20'0 0.0
2018-Apr-16 08:00N 36°55' W 076°20'0 0.0
2018-Apr-16 07:30N 36°55' W 076°20'0 0.0
2018-Apr-16 06:57N 36°55' W 076°20'0 0.0
2018-Apr-16 06:30N 36°55' W 076°20'0 0.0
2018-Apr-16 06:00N 36°55' W 076°20'0 0.0
2018-Apr-16 05:30N 36°55' W 076°20'0 0.0
2018-Apr-16 05:00N 36°55' W 076°20'0 0.0
2018-Apr-16 04:30N 36°55' W 076°20'0 0.0
2018-Apr-16 04:00N 36°55' W 076°20'0 0.0
2018-Apr-16 03:30N 36°55' W 076°20'0 0.0
2018-Apr-16 03:00N 36°55' W 076°20'0 0.0
2018-Apr-16 02:30N 36°55' W 076°20'0 0.0
2018-Apr-16 02:00N 36°55' W 076°20'0 0.0
2018-Apr-16 01:30N 36°55' W 076°20'0 0.0
2018-Apr-16 01:00N 36°55' W 076°20'0 0.0
2018-Apr-16 00:30N 36°55' W 076°20'0 0.0
2018-Apr-16 00:00N 36°55' W 076°20'0 0.0
2018-Apr-15 23:30N 36°55' W 076°20'0 0.0
2018-Apr-15 22:57N 36°55' W 076°20'0 0.0
2018-Apr-15 22:30N 36°55' W 076°20'0 0.0
2018-Apr-15 22:00N 36°55' W 076°20'0 0.0
2018-Apr-15 21:27N 36°55' W 076°20'0 0.0
2018-Apr-15 21:00N 36°55' W 076°20'0 0.0
2018-Apr-15 20:30N 36°55' W 076°20'0 0.0
2018-Apr-15 20:00N 36°55' W 076°20'0 0.0
2018-Apr-15 19:30N 36°55' W 076°20'0 0.0
2018-Apr-15 19:00N 36°55' W 076°20'0 0.0
2018-Apr-15 18:30N 36°55' W 076°20'0 0.0
2018-Apr-15 18:00N 36°55' W 076°20'0 0.0
2018-Apr-15 17:30N 36°55' W 076°20'0 0.0
2018-Apr-15 17:00N 36°55' W 076°20'0 0.0
2018-Apr-15 16:30N 36°55' W 076°20'0 0.0
2018-Apr-15 16:00N 36°55' W 076°20'0 0.0
2018-Apr-15 15:30N 36°55' W 076°20'1 1.4
2018-Apr-15 15:01N 36°55' W 076°20'4 6.4
2018-Apr-15 14:27N 36°59' W 076°20'613.9
2018-Apr-15 14:00N 36°60' W 076°12'917.8
2018-Apr-15 13:30N 36°57' W 076°02'510.4
2018-Apr-15 13:00N 36°56' W 075°56'5 9.2
2018-Apr-15 12:30N 36°52' W 075°52'6 8.6
2018-Apr-15 11:47N 36°49' W 075°45'23514.5
2018-Apr-14 19:30N 40°27' W 073°51'5 9.7
2018-Apr-14 19:00N 40°30' W 073°57'815.5
2018-Apr-14 18:30N 40°36' W 074°03'4 8.0
2018-Apr-14 18:01N 40°39' W 074°06'2 4.0
2018-Apr-14 17:30N 40°39' W 074°09'2 3.1
2018-Apr-14 16:59N 40°41' W 074°08'0 0.0
2018-Apr-14 16:30N 40°41' W 074°08'0 0.0
2018-Apr-14 16:00N 40°41' W 074°08'0 0.0
2018-Apr-14 15:30N 40°41' W 074°08'0 0.1
2018-Apr-14 15:00N 40°41' W 074°09'0 0.0
2018-Apr-14 14:30N 40°41' W 074°08'0 0.0
2018-Apr-14 14:00N 40°41' W 074°08'0 0.0
2018-Apr-14 13:30N 40°41' W 074°08'0 0.0
2018-Apr-14 13:00N 40°41' W 074°08'0 0.0
2018-Apr-14 12:30N 40°41' W 074°08'0 0.0
2018-Apr-14 12:00N 40°41' W 074°08'0 0.0
2018-Apr-14 11:30N 40°41' W 074°09'0 0.0
2018-Apr-14 11:00N 40°41' W 074°08'0 0.0
2018-Apr-14 10:30N 40°41' W 074°08'0 0.0
2018-Apr-14 10:00N 40°41' W 074°08'0 0.0
2018-Apr-14 09:30N 40°41' W 074°08'0 0.0
2018-Apr-14 09:00N 40°41' W 074°08'0 0.0
2018-Apr-14 08:30N 40°41' W 074°08'0 0.0
2018-Apr-14 08:00N 40°41' W 074°08'0 0.0
2018-Apr-14 07:30N 40°41' W 074°08'0 0.0
2018-Apr-14 07:00N 40°41' W 074°08'0 0.0
2018-Apr-14 06:30N 40°41' W 074°08'0 0.0
2018-Apr-14 06:00N 40°41' W 074°08'0 0.0
2018-Apr-14 05:30N 40°41' W 074°08'0 0.0
2018-Apr-14 05:00N 40°41' W 074°08'0 0.0
2018-Apr-14 04:30N 40°41' W 074°08'0 0.0
2018-Apr-14 04:00N 40°41' W 074°08'0 0.0
2018-Apr-14 03:30N 40°41' W 074°08'0 0.0
2018-Apr-14 03:00N 40°41' W 074°08'0 0.0
2018-Apr-14 02:30N 40°41' W 074°08'0 0.0
2018-Apr-14 02:00N 40°41' W 074°08'0 0.0
2018-Apr-14 01:30N 40°41' W 074°08'0 0.0
2018-Apr-14 01:00N 40°41' W 074°08'0 0.0
2018-Apr-14 00:30N 40°41' W 074°08'0 0.0
2018-Apr-14 00:00N 40°41' W 074°08'0 0.0
2018-Apr-13 23:27N 40°41' W 074°08'0 0.0
2018-Apr-13 23:00N 40°41' W 074°08'0 0.0
2018-Apr-13 22:27N 40°41' W 074°08'0 0.0
2018-Apr-13 22:00N 40°41' W 074°08'0 0.0
2018-Apr-13 21:30N 40°41' W 074°08'0 0.0
2018-Apr-13 21:00N 40°41' W 074°08'0 0.0
2018-Apr-13 20:30N 40°41' W 074°08'0 0.0
2018-Apr-13 20:00N 40°41' W 074°08'0 0.0
2018-Apr-13 19:30N 40°41' W 074°08'0 0.0
2018-Apr-13 19:00N 40°41' W 074°08'0 0.0
2018-Apr-13 18:27N 40°41' W 074°08'0 0.0
2018-Apr-13 18:00N 40°41' W 074°08'0 0.0
2018-Apr-13 17:30N 40°41' W 074°08'0 0.0
2018-Apr-13 17:00N 40°41' W 074°08'0 0.0
2018-Apr-13 16:30N 40°41' W 074°08'0 0.0
2018-Apr-13 16:00N 40°41' W 074°08'0 0.0
2018-Apr-13 15:30N 40°41' W 074°08'0 0.3
2018-Apr-13 15:00N 40°40' W 074°08'1 2.0
2018-Apr-13 14:31N 40°40' W 074°09'1 2.1
2018-Apr-13 14:00N 40°39' W 074°09'3 5.7
2018-Apr-13 13:30N 40°39' W 074°05'4 8.4
2018-Apr-13 13:01N 40°36' W 074°02'1111.4
2018-Apr-13 12:00N 40°28' W 073°51'4 8.0
2018-Apr-13 11:31N 40°27' W 073°46'4 8.0
2018-Apr-13 11:00N 40°28' W 073°41'5 9.3
2018-Apr-13 10:30N 40°28' W 073°35'510.0
2018-Apr-13 09:58N 40°28' W 073°27'713.7
2018-Apr-13 09:29N 40°29' W 073°19'50118.2
2018-Apr-12 06:00N 39°30' W 062°30'22018.3 050 / 361011.5 5.4 11.0 9.014.0
2018-Apr-11 18:00N 38°42' W 057°54'23019.1 320 / 281011.2 5.4 21.016.119.0
2018-Apr-11 06:00N 38°00' W 053°06'   140 / 181024.2 5.4 18.014.619.0

Dump ship's entire track history